createdAt,value
2023-04-06T00:01:00.907Z,100.00
2023-04-06T00:03:30.799Z,100.00
2023-04-06T00:05:59.448Z,100.00
2023-04-06T00:08:28.211Z,100.00
2023-04-06T00:10:56.737Z,100.00
2023-04-06T00:13:25.320Z,100.00
2023-04-06T00:15:53.766Z,100.00
2023-04-06T00:18:22.124Z,100.00
2023-04-06T00:20:52.204Z,100.00
2023-04-06T00:23:21.883Z,99.72
2023-04-06T00:25:50.330Z,96.34
2023-04-06T00:28:18.737Z,96.27
2023-04-06T00:30:47.154Z,98.11
2023-04-06T00:33:15.681Z,96.96
2023-04-06T00:35:44.121Z,95.71
2023-04-06T00:38:14.149Z,96.27
2023-04-06T00:40:42.701Z,97.65
2023-04-06T00:43:11.421Z,97.31
2023-04-06T00:45:41.166Z,98.80
2023-04-06T00:48:10.167Z,100.00
2023-04-06T00:50:38.693Z,100.00
2023-04-06T00:53:07.216Z,99.83
2023-04-06T00:55:37.958Z,96.21
2023-04-06T00:58:06.717Z,95.16
2023-04-06T01:00:35.433Z,96.32
2023-04-06T01:03:04.653Z,95.71
2023-04-06T01:05:33.105Z,96.17
2023-04-06T01:08:01.641Z,96.40
2023-04-06T01:10:30.916Z,95.91
2023-04-06T01:13:00.813Z,94.70
2023-04-06T01:15:30.954Z,95.83
2023-04-06T01:17:59.445Z,94.26
2023-04-06T01:20:27.930Z,92.03
2023-04-06T01:22:57.864Z,92.83
2023-04-06T01:25:26.631Z,92.63
2023-04-06T01:27:55.131Z,92.90
2023-04-06T01:30:24.113Z,91.28
2023-04-06T01:32:52.718Z,90.67
2023-04-06T01:35:21.874Z,90.47
2023-04-06T01:37:50.594Z,90.70
2023-04-06T01:40:20.579Z,89.83
2023-04-06T01:42:49.020Z,92.02
2023-04-06T01:45:17.531Z,90.95
2023-04-06T01:47:45.968Z,92.68
2023-04-06T01:50:14.361Z,92.54
2023-04-06T01:52:43.223Z,92.39
2023-04-06T01:55:11.772Z,92.32
2023-04-06T01:57:41.591Z,90.87
2023-04-06T02:00:11.120Z,92.76
2023-04-06T02:02:39.787Z,91.89
2023-04-06T02:05:09.202Z,90.83
2023-04-06T02:07:37.649Z,91.36
2023-04-06T02:10:06.890Z,93.52
2023-04-06T02:12:35.287Z,92.99
2023-04-06T02:15:05.649Z,91.91
2023-04-06T02:17:34.047Z,92.23
2023-04-06T02:20:03.027Z,92.29
2023-04-06T02:22:31.599Z,93.59
2023-04-06T02:25:01.817Z,93.08
2023-04-06T02:27:30.263Z,92.99
2023-04-06T02:29:58.708Z,91.37
2023-04-06T02:32:28.807Z,91.73
2023-04-06T02:34:57.227Z,91.81
2023-04-06T02:37:26.238Z,92.24
2023-04-06T02:39:54.871Z,92.26
2023-04-06T02:42:23.431Z,91.12
2023-04-06T02:44:51.802Z,91.95
2023-04-06T02:47:20.214Z,92.41
2023-04-06T02:49:50.128Z,91.49
2023-04-06T02:52:18.971Z,91.59
2023-04-06T02:54:47.386Z,92.40
2023-04-06T02:57:15.804Z,92.30
2023-04-06T02:59:44.319Z,92.29
2023-04-06T03:02:12.829Z,94.04
2023-04-06T03:04:41.351Z,93.48
2023-04-06T03:07:11.206Z,93.65
2023-04-06T03:09:40.540Z,93.95
2023-04-06T03:12:10.178Z,94.58
2023-04-06T03:14:38.806Z,94.74
2023-04-06T03:17:07.424Z,94.48
2023-04-06T03:19:35.838Z,94.45
2023-04-06T03:22:04.253Z,94.47
2023-04-06T03:24:34.205Z,95.53
2023-04-06T03:27:02.635Z,95.32
2023-04-06T03:29:31.061Z,96.09
2023-04-06T03:31:59.413Z,96.15
2023-04-06T03:34:27.965Z,96.44
2023-04-06T03:37:08.917Z,96.49
2023-04-06T03:39:39.968Z,98.35
2023-04-06T03:42:08.475Z,97.84
2023-04-06T03:44:36.937Z,98.03
2023-04-06T03:47:05.505Z,97.44
2023-04-06T03:49:33.901Z,96.47
2023-04-06T03:52:03.196Z,95.41
2023-04-06T03:54:31.820Z,95.83
2023-04-06T03:57:01.673Z,95.79
2023-04-06T03:59:30.275Z,96.37
2023-04-06T04:01:58.722Z,96.50
2023-04-06T04:04:27.261Z,96.16
2023-04-06T04:06:55.758Z,96.88
2023-04-06T04:09:24.230Z,97.02
2023-04-06T04:11:52.741Z,96.36
2023-04-06T04:14:23.060Z,96.52
2023-04-06T04:16:51.659Z,95.99
2023-04-06T04:19:20.781Z,96.10
2023-04-06T04:21:49.614Z,96.75
2023-04-06T04:24:18.422Z,97.47
2023-04-06T04:26:46.889Z,96.89
2023-04-06T04:29:16.380Z,97.00
2023-04-06T04:31:46.821Z,96.86
2023-04-06T04:34:15.331Z,95.78
2023-04-06T04:36:44.077Z,95.95
2023-04-06T04:39:12.544Z,95.47
2023-04-06T04:41:40.977Z,95.19
2023-04-06T04:44:10.153Z,95.38
2023-04-06T04:46:38.627Z,95.09
2023-04-06T04:49:08.654Z,94.65
2023-04-06T04:51:37.941Z,93.65
2023-04-06T04:54:06.678Z,92.15
2023-04-06T04:56:35.227Z,91.90
2023-04-06T04:59:03.741Z,91.51
2023-04-06T05:01:38.033Z,91.31
2023-04-06T05:04:17.480Z,91.13
2023-04-06T05:06:46.054Z,90.07
2023-04-06T05:09:14.562Z,88.09
2023-04-06T05:11:43.106Z,87.31
2023-04-06T05:14:12.339Z,88.04
2023-04-06T05:16:41.768Z,86.92
2023-04-06T05:19:10.396Z,87.04
2023-04-06T05:21:40.379Z,87.25
2023-04-06T05:24:09.730Z,86.70
2023-04-06T05:26:38.188Z,85.34
2023-04-06T05:29:07.004Z,85.31
2023-04-06T05:31:35.660Z,85.53
2023-04-06T05:34:04.310Z,85.54
2023-04-06T05:36:33.320Z,85.02
2023-04-06T05:39:03.361Z,85.08
2023-04-06T05:41:31.785Z,84.18
2023-04-06T05:44:00.312Z,85.34
2023-04-06T05:46:28.932Z,84.18
2023-04-06T05:48:57.600Z,83.24
2023-04-06T05:51:26.217Z,82.30
2023-04-06T05:53:54.607Z,81.14
2023-04-06T05:56:24.911Z,81.28
2023-04-06T05:58:53.670Z,81.03
2023-04-06T06:01:24.375Z,80.25
2023-04-06T06:03:52.748Z,79.71
2023-04-06T06:06:21.122Z,80.71
2023-04-06T06:08:49.501Z,79.74
2023-04-06T06:11:18.174Z,79.11
2023-04-06T06:13:48.047Z,79.38
2023-04-06T06:16:16.518Z,77.45
2023-04-06T06:18:45.277Z,77.46
2023-04-06T06:21:13.863Z,77.74
2023-04-06T06:23:42.626Z,78.66
2023-04-06T06:26:11.078Z,77.43
2023-04-06T06:28:39.455Z,77.58
2023-04-06T06:31:09.507Z,77.69
2023-04-06T06:33:38.006Z,78.35
2023-04-06T06:36:06.547Z,77.97
2023-04-06T06:38:35.006Z,77.84
2023-04-06T06:41:03.386Z,77.55
2023-04-06T06:43:31.806Z,77.49
2023-04-06T06:46:02.624Z,76.31
2023-04-06T06:48:32.941Z,76.82
2023-04-06T06:51:01.531Z,76.22
2023-04-06T06:53:31.066Z,74.93
2023-04-06T06:55:59.777Z,73.57
2023-04-06T06:58:28.222Z,72.12
2023-04-06T07:00:59.972Z,71.65
2023-04-06T07:03:28.542Z,70.89
2023-04-06T07:05:58.518Z,70.97
2023-04-06T07:08:27.170Z,68.16
2023-04-06T07:10:57.367Z,64.84
2023-04-06T07:13:27.973Z,65.20
2023-04-06T07:15:56.499Z,64.49
2023-04-06T07:18:25.206Z,63.23
2023-04-06T07:20:54.469Z,62.30
2023-04-06T07:23:24.577Z,59.68
2023-04-06T07:25:54.714Z,60.60
2023-04-06T07:28:24.744Z,59.17
2023-04-06T07:30:53.754Z,57.91
2023-04-06T07:33:22.475Z,59.04
2023-04-06T07:35:50.998Z,60.88
2023-04-06T07:38:19.446Z,62.43
2023-04-06T07:40:49.323Z,62.60
2023-04-06T07:43:18.144Z,62.87
2023-04-06T07:45:46.893Z,63.96
2023-04-06T07:48:15.311Z,64.45
2023-04-06T07:50:43.749Z,64.96
2023-04-06T07:53:12.318Z,62.85
2023-04-06T07:55:40.857Z,63.59
2023-04-06T07:58:10.726Z,65.42
2023-04-06T08:00:39.244Z,63.41
2023-04-06T08:03:08.303Z,62.83
2023-04-06T08:05:37.019Z,63.10
2023-04-06T08:08:05.573Z,61.61
2023-04-06T08:10:35.615Z,62.83
2023-04-06T08:13:04.551Z,62.60
2023-04-06T08:15:34.531Z,63.51
2023-04-06T08:18:03.207Z,62.72
2023-04-06T08:20:31.715Z,61.48
2023-04-06T08:23:00.274Z,61.75
2023-04-06T08:25:28.780Z,64.03
2023-04-06T08:27:57.198Z,61.40
2023-04-06T08:30:25.857Z,60.16
2023-04-06T08:32:55.921Z,59.03
2023-04-06T08:35:24.501Z,58.27
2023-04-06T08:37:52.910Z,57.63
2023-04-06T08:40:21.687Z,57.07
2023-04-06T08:42:54.721Z,55.28
2023-04-06T08:45:23.444Z,54.38
2023-04-06T08:47:53.588Z,56.42
2023-04-06T08:50:24.046Z,55.02
2023-04-06T08:52:52.587Z,55.71
2023-04-06T08:55:21.199Z,55.22
2023-04-06T08:57:50.130Z,54.67
2023-04-06T09:00:20.022Z,54.30
2023-04-06T09:02:49.695Z,53.62
2023-04-06T09:05:18.771Z,53.24
2023-04-06T09:07:49.095Z,52.73
2023-04-06T09:10:19.406Z,53.89
2023-04-06T09:12:47.829Z,55.11
2023-04-06T09:15:25.060Z,54.99
2023-04-06T09:17:55.800Z,54.95
2023-04-06T09:20:27.467Z,53.97
2023-04-06T09:22:57.878Z,54.69
2023-04-06T09:25:28.121Z,54.87
2023-04-06T09:28:03.314Z,54.44
2023-04-06T09:30:32.676Z,54.06
2023-04-06T09:33:01.489Z,55.95
2023-04-06T09:35:32.345Z,56.31
2023-04-06T09:38:13.445Z,55.11
2023-04-06T09:41:00.817Z,54.53
2023-04-06T09:43:30.223Z,54.45
2023-04-06T09:45:59.886Z,55.84
2023-04-06T09:48:30.111Z,55.80
2023-04-06T09:51:05.993Z,55.57
2023-04-06T09:53:39.605Z,57.08
2023-04-06T09:56:12.556Z,56.78
2023-04-06T09:58:45.992Z,54.13
2023-04-06T10:01:18.065Z,53.27
2023-04-06T10:03:55.302Z,52.69
2023-04-06T10:06:26.579Z,53.23
2023-04-06T10:08:59.347Z,53.93
2023-04-06T10:11:28.353Z,53.35
2023-04-06T10:13:58.342Z,53.55
2023-04-06T10:16:29.005Z,53.66
2023-04-06T10:19:04.479Z,54.10
2023-04-06T10:21:34.686Z,54.68
2023-04-06T10:24:11.022Z,54.44
2023-04-06T10:26:39.433Z,55.38
2023-04-06T10:29:08.519Z,56.29
2023-04-06T10:31:45.816Z,56.95
2023-04-06T10:34:15.691Z,54.47
2023-04-06T10:36:44.099Z,52.81
2023-04-06T10:39:14.084Z,52.95
2023-04-06T10:41:44.772Z,52.32
2023-04-06T10:44:22.362Z,51.43
2023-04-06T10:46:58.936Z,52.92
2023-04-06T10:49:27.939Z,52.78
2023-04-06T10:51:57.883Z,53.14
2023-04-06T10:54:29.271Z,52.57
2023-04-06T10:56:58.214Z,52.84
2023-04-06T10:59:27.847Z,52.75
2023-04-06T11:01:57.085Z,53.38
2023-04-06T11:04:25.725Z,52.92
2023-04-06T11:06:55.110Z,53.69
2023-04-06T11:09:28.892Z,54.66
2023-04-06T11:11:57.987Z,54.65
2023-04-06T11:14:27.638Z,62.74
2023-04-06T11:16:56.462Z,64.75
2023-04-06T11:19:25.156Z,63.55
2023-04-06T11:21:53.698Z,66.28
2023-04-06T11:24:24.193Z,61.94
2023-04-06T11:26:57.048Z,55.85
2023-04-06T11:29:28.927Z,55.98
2023-04-06T11:32:01.619Z,52.30
2023-04-06T11:34:32.081Z,53.99
2023-04-06T11:37:02.833Z,59.07
2023-04-06T11:39:32.086Z,55.83
2023-04-06T11:42:03.797Z,53.59
2023-04-06T11:44:36.334Z,52.58
2023-04-06T11:47:05.627Z,52.89
2023-04-06T11:49:34.960Z,55.16
2023-04-06T11:52:03.649Z,62.62
2023-04-06T11:54:33.486Z,64.40
2023-04-06T11:57:04.404Z,55.68
2023-04-06T11:59:33.243Z,60.39
2023-04-06T12:02:01.737Z,59.82
2023-04-06T12:04:30.277Z,59.06
2023-04-06T12:06:59.162Z,61.50
2023-04-06T12:09:27.595Z,60.76
2023-04-06T12:11:56.985Z,71.77
2023-04-06T12:14:26.908Z,75.03
2023-04-06T12:16:55.463Z,72.89
2023-04-06T12:19:26.757Z,77.24
2023-04-06T12:21:55.749Z,79.51
2023-04-06T12:24:24.288Z,80.36
2023-04-06T12:26:59.445Z,80.87
2023-04-06T12:29:36.584Z,79.52
2023-04-06T12:32:05.165Z,78.73
2023-04-06T12:34:33.605Z,79.79
2023-04-06T12:37:02.042Z,80.32
2023-04-06T12:39:31.228Z,81.00
2023-04-06T12:42:00.009Z,76.69
2023-04-06T12:44:28.354Z,78.00
2023-04-06T12:46:58.327Z,78.79
2023-04-06T12:49:26.896Z,81.78
2023-04-06T12:51:55.580Z,85.36
2023-04-06T12:54:24.062Z,84.32
2023-04-06T12:56:53.307Z,84.53
2023-04-06T12:59:22.081Z,82.95
2023-04-06T13:01:51.297Z,84.52
2023-04-06T13:04:21.121Z,89.36
2023-04-06T13:06:49.626Z,93.70
2023-04-06T13:09:18.064Z,92.07
2023-04-06T13:11:46.988Z,92.62
2023-04-06T13:14:15.439Z,91.42
2023-04-06T13:16:44.179Z,91.13
2023-04-06T13:19:13.108Z,90.43
2023-04-06T13:21:43.280Z,88.89
2023-04-06T13:24:11.825Z,88.33
2023-04-06T13:26:40.553Z,87.82
2023-04-06T13:29:08.936Z,88.90
2023-04-06T13:31:37.626Z,89.25
2023-04-06T13:34:06.191Z,90.12
2023-04-06T13:36:34.626Z,92.78
2023-04-06T13:39:04.439Z,93.98
2023-04-06T13:41:32.809Z,93.15
2023-04-06T13:44:01.332Z,91.27
2023-04-06T13:46:30.378Z,87.73
2023-04-06T13:48:58.730Z,86.16
2023-04-06T13:51:27.752Z,87.34
2023-04-06T13:53:56.285Z,87.11
2023-04-06T13:56:26.137Z,88.83
2023-04-06T13:58:57.017Z,91.11
2023-04-06T14:01:27.757Z,90.78
2023-04-06T14:03:56.426Z,92.80
2023-04-06T14:06:31.244Z,95.75
2023-04-06T14:09:00.955Z,96.36
2023-04-06T14:11:30.786Z,97.79
2023-04-06T14:13:59.111Z,97.44
2023-04-06T14:16:27.870Z,97.60
2023-04-06T14:18:56.186Z,100.00
2023-04-06T14:21:24.568Z,100.00
2023-04-06T14:23:53.653Z,100.00
2023-04-06T14:26:22.053Z,100.00
2023-04-06T14:28:51.805Z,100.00
2023-04-06T14:31:20.164Z,100.00
2023-04-06T14:33:48.610Z,100.00
2023-04-06T14:36:17.103Z,100.00
2023-04-06T14:38:47.668Z,100.00
2023-04-06T14:41:19.449Z,100.00
2023-04-06T14:43:48.590Z,100.00
2023-04-06T14:46:18.531Z,100.00
2023-04-06T14:48:47.468Z,100.00
2023-04-06T14:51:16.519Z,100.00
2023-04-06T14:53:45.455Z,100.00
2023-04-06T14:56:14.002Z,100.00
2023-04-06T14:58:42.387Z,100.00
2023-04-06T15:01:11.110Z,100.00
2023-04-06T15:03:41.045Z,100.00
2023-04-06T15:06:16.655Z,100.00
2023-04-06T15:08:45.468Z,100.00
2023-04-06T15:11:14.779Z,100.00
2023-04-06T15:13:43.534Z,100.00
2023-04-06T15:16:12.474Z,100.00
2023-04-06T15:18:42.410Z,100.00
2023-04-06T15:21:10.729Z,100.00
2023-04-06T15:23:39.062Z,100.00
2023-04-06T15:26:07.438Z,100.00
2023-04-06T15:28:36.116Z,100.00
2023-04-06T15:31:07.265Z,100.00
2023-04-06T15:33:35.840Z,100.00
2023-04-06T15:36:11.408Z,100.00
2023-04-06T15:38:39.924Z,100.00
2023-04-06T15:41:11.430Z,100.00
2023-04-06T15:43:40.768Z,100.00
2023-04-06T15:46:09.353Z,100.00
2023-04-06T15:48:37.727Z,100.00
2023-04-06T15:51:07.775Z,100.00
2023-04-06T15:53:37.544Z,100.00
2023-04-06T15:56:09.641Z,100.00
2023-04-06T15:58:38.409Z,100.00
2023-04-06T16:01:14.816Z,100.00
2023-04-06T16:03:43.562Z,100.00
2023-04-06T16:06:14.112Z,100.00
2023-04-06T16:08:42.821Z,100.00
2023-04-06T16:11:11.472Z,100.00
2023-04-06T16:13:40.425Z,100.00
2023-04-06T16:16:10.656Z,100.00
2023-04-06T16:18:39.259Z,100.00
2023-04-06T16:21:07.843Z,100.00
2023-04-06T16:23:39.196Z,100.00
2023-04-06T16:26:13.364Z,100.00
2023-04-06T16:28:42.292Z,100.00
2023-04-06T16:31:19.284Z,100.00
2023-04-06T16:33:47.847Z,100.00
2023-04-06T16:36:16.370Z,100.00
2023-04-06T16:38:46.473Z,100.00
2023-04-06T16:41:16.147Z,100.00
2023-04-06T16:43:45.340Z,100.00
2023-04-06T16:46:14.027Z,100.00
2023-04-06T16:48:42.444Z,100.00
2023-04-06T16:51:11.246Z,100.00
2023-04-06T16:53:40.073Z,100.00
2023-04-06T16:56:10.623Z,100.00
2023-04-06T16:58:39.565Z,100.00
2023-04-06T17:01:08.082Z,100.00
2023-04-06T17:03:36.584Z,100.00
2023-04-06T17:06:05.323Z,100.00
2023-04-06T17:08:33.726Z,100.00
2023-04-06T17:11:04.670Z,100.00
2023-04-06T17:13:35.130Z,100.00
2023-04-06T17:16:03.514Z,100.00
2023-04-06T17:18:32.200Z,100.00
2023-04-06T17:21:00.863Z,100.00
2023-04-06T17:23:29.524Z,100.00
2023-04-06T17:25:59.252Z,100.00
2023-04-06T17:28:28.084Z,100.00
2023-04-06T17:31:01.663Z,100.00
2023-04-06T17:33:32.817Z,100.00
2023-04-06T17:36:01.679Z,100.00
2023-04-06T17:38:30.231Z,100.00
2023-04-06T17:40:58.706Z,100.00
2023-04-06T17:43:27.171Z,100.00
2023-04-06T17:45:55.707Z,100.00
2023-04-06T17:48:26.843Z,100.00
2023-04-06T17:50:55.414Z,100.00
2023-04-06T17:53:23.965Z,100.00
2023-04-06T17:55:52.465Z,100.00
2023-04-06T17:58:22.576Z,100.00
2023-04-06T18:00:50.870Z,100.00
2023-04-06T18:03:19.387Z,100.00
2023-04-06T18:05:49.659Z,100.00
2023-04-06T18:08:18.107Z,100.00
2023-04-06T18:10:48.468Z,100.00
2023-04-06T18:13:17.200Z,100.00
2023-04-06T18:15:45.846Z,100.00
2023-04-06T18:18:14.468Z,100.00
2023-04-06T18:20:43.585Z,100.00
2023-04-06T18:23:13.404Z,100.00
2023-04-06T18:25:41.919Z,100.00
2023-04-06T18:28:11.542Z,100.00
2023-04-06T18:30:40.858Z,100.00
2023-04-06T18:33:09.475Z,100.00
2023-04-06T18:35:38.472Z,100.00
2023-04-06T18:38:06.762Z,100.00
2023-04-06T18:40:39.613Z,100.00
2023-04-06T18:43:09.401Z,100.00
2023-04-06T18:45:40.224Z,100.00
2023-04-06T18:48:09.533Z,100.00
2023-04-06T18:50:38.612Z,100.00
2023-04-06T18:53:07.626Z,100.00
2023-04-06T18:55:38.371Z,100.00
2023-04-06T18:58:06.953Z,100.00
2023-04-06T19:00:35.282Z,100.00
2023-04-06T19:03:04.216Z,100.00
2023-04-06T19:05:33.527Z,100.00
2023-04-06T19:08:02.258Z,100.00
2023-04-06T19:10:32.215Z,100.00
2023-04-06T19:13:02.854Z,100.00
2023-04-06T19:15:31.238Z,100.00
2023-04-06T19:18:00.052Z,100.00
2023-04-06T19:20:28.556Z,100.00
2023-04-06T19:22:57.465Z,100.00
2023-04-06T19:25:26.285Z,100.00
2023-04-06T19:27:54.681Z,100.00
2023-04-06T19:30:25.217Z,100.00
2023-04-06T19:32:53.880Z,100.00
2023-04-06T19:35:22.819Z,100.00
2023-04-06T19:37:51.593Z,100.00
2023-04-06T19:40:20.495Z,100.00
2023-04-06T19:42:48.979Z,100.00
2023-04-06T19:45:17.281Z,100.00
2023-04-06T19:47:47.136Z,100.00
2023-04-06T19:50:15.865Z,100.00
2023-04-06T19:52:44.549Z,100.00
2023-04-06T19:55:13.090Z,100.00
2023-04-06T19:57:41.699Z,100.00
2023-04-06T20:00:11.449Z,100.00
2023-04-06T20:02:39.906Z,100.00
2023-04-06T20:05:10.504Z,100.00
2023-04-06T20:07:41.203Z,100.00
2023-04-06T20:10:14.635Z,100.00
2023-04-06T20:12:44.158Z,100.00
2023-04-06T20:15:13.575Z,100.00
2023-04-06T20:17:42.964Z,100.00
2023-04-06T20:20:14.041Z,100.00
2023-04-06T20:22:43.465Z,100.00
2023-04-06T20:25:12.803Z,100.00
2023-04-06T20:27:41.177Z,100.00
2023-04-06T20:30:11.241Z,100.00
2023-04-06T20:32:39.806Z,100.00
2023-04-06T20:35:09.492Z,100.00
2023-04-06T20:37:39.728Z,100.00
2023-04-06T20:40:09.196Z,100.00
2023-04-06T20:42:39.200Z,100.00
2023-04-06T20:45:08.870Z,100.00
2023-04-06T20:47:37.625Z,100.00
2023-04-06T20:50:06.870Z,100.00
2023-04-06T20:52:36.547Z,100.00
2023-04-06T20:55:07.534Z,100.00
2023-04-06T20:57:36.136Z,100.00
2023-04-06T21:00:05.916Z,100.00
2023-04-06T21:02:34.841Z,100.00
2023-04-06T21:05:03.439Z,100.00
2023-04-06T21:07:33.052Z,100.00
2023-04-06T21:10:01.726Z,100.00
2023-04-06T21:12:31.635Z,100.00
2023-04-06T21:15:00.585Z,100.00
2023-04-06T21:17:29.831Z,100.00
2023-04-06T21:19:58.165Z,100.00
2023-04-06T21:22:26.789Z,100.00
2023-04-06T21:24:55.310Z,100.00
2023-04-06T21:27:24.970Z,100.00
2023-04-06T21:29:54.744Z,100.00
2023-04-06T21:32:23.369Z,100.00
2023-04-06T21:34:51.819Z,100.00
2023-04-06T21:37:20.437Z,100.00
2023-04-06T21:39:48.969Z,100.00
2023-04-06T21:42:17.847Z,100.00
2023-04-06T21:44:46.208Z,100.00
2023-04-06T21:47:15.975Z,100.00
2023-04-06T21:49:44.306Z,100.00
2023-04-06T21:52:12.982Z,100.00
2023-04-06T21:54:41.249Z,100.00
2023-04-06T21:57:10.227Z,100.00
2023-04-06T21:59:38.529Z,100.00
2023-04-06T22:02:06.979Z,100.00
2023-04-06T22:04:37.151Z,100.00
2023-04-06T22:07:05.810Z,100.00
2023-04-06T22:09:34.321Z,100.00
2023-04-06T22:12:02.605Z,100.00
2023-04-06T22:14:31.975Z,100.00
2023-04-06T22:17:00.567Z,100.00
2023-04-06T22:19:29.100Z,100.00
2023-04-06T22:21:59.173Z,100.00
2023-04-06T22:24:28.098Z,100.00
2023-04-06T22:26:56.680Z,100.00
2023-04-06T22:29:25.181Z,100.00
2023-04-06T22:31:53.550Z,97.44
2023-04-06T22:34:21.949Z,91.30
2023-04-06T22:36:50.358Z,82.58
2023-04-06T22:39:20.215Z,78.97
2023-04-06T22:41:48.813Z,77.07
2023-04-06T22:44:17.425Z,74.70
2023-04-06T22:46:46.198Z,72.79
2023-04-06T22:49:14.688Z,71.79
2023-04-06T22:51:43.157Z,71.34
2023-04-06T22:54:12.613Z,69.70
2023-04-06T22:56:42.368Z,68.18
2023-04-06T22:59:11.054Z,67.13
2023-04-06T23:01:39.660Z,66.85
2023-04-06T23:04:08.300Z,66.38
2023-04-06T23:06:36.843Z,66.13
2023-04-06T23:09:05.364Z,66.02
2023-04-06T23:11:33.897Z,64.17
2023-04-06T23:14:04.076Z,64.12
2023-04-06T23:16:32.973Z,64.45
2023-04-06T23:19:01.517Z,64.26
2023-04-06T23:21:33.351Z,64.41
2023-04-06T23:24:03.109Z,63.98
2023-04-06T23:26:31.800Z,64.13
2023-04-06T23:29:00.122Z,63.27
2023-04-06T23:31:29.941Z,63.55
2023-04-06T23:33:58.245Z,63.42
2023-04-06T23:36:27.027Z,63.56
2023-04-06T23:38:56.510Z,62.28
2023-04-06T23:41:25.128Z,61.46
2023-04-06T23:43:53.798Z,61.33
2023-04-06T23:46:22.086Z,60.53
2023-04-06T23:48:51.918Z,60.70
2023-04-06T23:51:20.303Z,60.15
2023-04-06T23:53:48.649Z,60.36
2023-04-06T23:56:16.945Z,60.44
2023-04-06T23:58:45.276Z,60.75
